Time;durP1;ratioP1;P1;durP2;ratioP2;P2;SDS_P1;SDS_P2;PMS_P1;PMS_P2;Temp;Humidity;BMP_temperature;BMP_pressure;BME280_temperature;BME280_humidity;BME280_pressure;Samples;Min_cycle;Max_cycle;Signal;HPM_P1;HPM_P2
2023/03/19 00:00:35;;;;;;;3.77;2.50;;;;;10.30;100556.00;;;;9686530;30;20222;-78
2023/03/19 00:05:37;;;;;;;3.07;2.30;;;;;10.30;100561.00;;;;9684416;30;20229;-79
2023/03/19 00:10:40;;;;;;;3.37;2.83;;;;;10.30;100563.00;;;;9730504;30;20230;-77
2023/03/19 00:15:42;;;;;;;2.90;2.67;;;;;10.30;100565.00;;;;9700043;30;20242;-77
2023/03/19 00:20:44;;;;;;;5.37;3.00;;;;;10.30;100569.00;;;;9691976;30;20318;-78
2023/03/19 00:25:46;;;;;;;3.93;2.77;;;;;10.30;100556.00;;;;9707437;30;20237;-78
2023/03/19 00:30:49;;;;;;;3.97;2.93;;;;;10.20;100561.00;;;;9692283;30;20584;-78
2023/03/19 00:35:51;;;;;;;3.87;3.30;;;;;10.20;100554.00;;;;9671229;30;20694;-77
2023/03/19 00:40:53;;;;;;;4.80;3.03;;;;;10.10;100567.00;;;;9671782;30;20234;-78
2023/03/19 00:45:55;;;;;;;5.20;3.20;;;;;10.10;100567.00;;;;9665704;30;20218;-78
2023/03/19 00:51:03;;;;;;;4.10;3.37;;;;;10.10;100569.00;;;;9725906;30;20210;-78
2023/03/19 00:56:06;;;;;;;7.17;3.60;;;;;10.10;100571.00;;;;9716209;30;20234;-78
2023/03/19 01:01:10;;;;;;;4.87;3.17;;;;;10.10;100571.00;;;;9730641;30;20587;-80
2023/03/19 01:06:12;;;;;;;3.17;2.63;;;;;10.10;100575.00;;;;9726764;30;20284;-80
2023/03/19 01:11:16;;;;;;;3.73;3.20;;;;;10.10;100579.00;;;;9721559;30;20231;-81
2023/03/19 01:16:18;;;;;;;5.53;3.43;;;;;10.10;100577.00;;;;9711394;30;20246;-81
2023/03/19 01:21:20;;;;;;;6.50;4.67;;;;;10.10;100570.00;;;;9733338;30;20234;-80
2023/03/19 01:26:24;;;;;;;5.23;3.50;;;;;10.10;100578.00;;;;9719476;30;20210;-80
2023/03/19 01:31:30;;;;;;;6.47;3.90;;;;;10.10;100572.00;;;;9717599;30;20216;-81
2023/03/19 01:36:51;;;;;;;5.10;3.83;;;;;10.10;100576.00;;;;9689395;30;20219;-81
2023/03/19 01:42:03;;;;;;;4.90;3.27;;;;;10.10;100574.00;;;;9717025;30;20230;-81
2023/03/19 01:47:30;;;;;;;6.60;3.30;;;;;10.20;100582.00;;;;9685038;30;20273;-81
2023/03/19 01:53:01;;;;;;;6.40;4.10;;;;;10.20;100578.00;;;;9729580;30;20219;-82
2023/03/19 01:58:17;;;;;;;6.33;4.90;;;;;10.30;100576.00;;;;9710048;30;20213;-81
2023/03/19 02:03:41;;;;;;;6.87;4.33;;;;;10.30;100579.00;;;;9747492;30;20246;-80
2023/03/19 02:08:52;;;;;;;7.03;4.80;;;;;10.40;100577.00;;;;9739900;30;20206;-81
2023/03/19 02:13:53;;;;;;;7.47;5.13;;;;;10.40;100580.00;;;;9738522;30;20221;-81
2023/03/19 02:18:56;;;;;;;7.67;5.97;;;;;10.50;100583.00;;;;9725281;30;20321;-81
2023/03/19 02:24:15;;;;;;;8.73;6.50;;;;;10.50;100594.00;;;;9739837;30;20618;-80
2023/03/19 02:29:38;;;;;;;9.87;7.13;;;;;10.50;100580.00;;;;9715302;30;20219;-81
2023/03/19 02:34:42;;;;;;;10.33;7.60;;;;;10.50;100587.00;;;;9706859;30;20219;-81
2023/03/19 02:39:44;;;;;;;10.57;7.93;;;;;10.50;100586.00;;;;9689125;30;20281;-81
2023/03/19 02:44:46;;;;;;;13.13;8.83;;;;;10.50;100583.00;;;;9723422;30;20206;-81
2023/03/19 02:49:48;;;;;;;12.43;9.93;;;;;10.50;100594.00;;;;9738188;30;20261;-81
2023/03/19 02:54:50;;;;;;;13.17;9.90;;;;;10.50;100586.00;;;;9717225;30;20214;-81
2023/03/19 02:59:52;;;;;;;14.37;10.77;;;;;10.50;100581.00;;;;9721804;30;20233;-81
2023/03/19 03:04:54;;;;;;;17.07;11.80;;;;;10.50;100579.00;;;;9723381;30;20672;-80
2023/03/19 03:09:59;;;;;;;12.10;10.17;;;;;10.40;100579.00;;;;9666537;30;20230;-80
2023/03/19 03:15:02;;;;;;;15.17;10.93;;;;;10.40;100575.00;;;;9713247;30;20265;-80
2023/03/19 03:20:06;;;;;;;12.77;11.30;;;;;10.40;100574.00;;;;9751298;30;20239;-80
2023/03/19 03:25:10;;;;;;;13.97;11.37;;;;;10.40;100595.00;;;;9703237;30;20286;-81
2023/03/19 03:30:12;;;;;;;14.07;11.20;;;;;10.30;100595.00;;;;9718341;30;20250;-80
2023/03/19 03:35:20;;;;;;;14.77;11.90;;;;;10.20;100598.00;;;;9731573;30;20261;-80
2023/03/19 03:40:24;;;;;;;13.77;12.00;;;;;10.10;100599.00;;;;9655831;30;20350;-78
2023/03/19 03:45:26;;;;;;;17.43;11.60;;;;;10.00;100599.00;;;;9698029;30;20210;-81
2023/03/19 03:50:29;;;;;;;17.17;13.00;;;;;9.90;100603.00;;;;9688060;30;20306;-80
2023/03/19 03:55:36;;;;;;;17.10;13.40;;;;;9.80;100596.00;;;;9688447;30;20226;-80
2023/03/19 04:00:39;;;;;;;17.23;12.27;;;;;9.60;100597.00;;;;9689814;30;20258;-80
2023/03/19 04:05:43;;;;;;;15.80;12.03;;;;;9.40;100600.00;;;;9719400;30;20273;-81
2023/03/19 04:10:48;;;;;;;15.97;12.47;;;;;9.20;100594.00;;;;9724810;30;20226;-81
2023/03/19 04:15:53;;;;;;;16.67;13.20;;;;;9.10;100611.00;;;;9736947;30;20217;-80
2023/03/19 04:20:56;;;;;;;18.83;13.33;;;;;8.90;100610.00;;;;9710318;30;20227;-81
2023/03/19 04:26:00;;;;;;;19.17;14.43;;;;;8.80;100612.00;;;;9716096;30;20265;-81
2023/03/19 04:31:05;;;;;;;19.13;13.83;;;;;8.80;100625.00;;;;9703838;30;20203;-81
2023/03/19 04:36:10;;;;;;;24.57;15.47;;;;;8.80;100621.00;;;;9689059;30;20221;-81
2023/03/19 04:41:15;;;;;;;29.53;16.07;;;;;8.80;100619.00;;;;9686988;30;20336;-81
2023/03/19 04:46:27;;;;;;;25.80;15.00;;;;;8.80;100622.00;;;;9707512;30;20210;-81
2023/03/19 04:51:29;;;;;;;21.43;13.40;;;;;8.70;100634.00;;;;9737541;30;20204;-81
2023/03/19 04:56:32;;;;;;;20.90;11.27;;;;;8.60;100622.00;;;;9737706;30;20972;-81
2023/03/19 05:01:35;;;;;;;20.53;10.20;;;;;8.50;100627.00;;;;9722302;30;20237;-81
2023/03/19 05:06:40;;;;;;;17.87;9.10;;;;;8.30;100636.00;;;;9729885;30;20287;-81
2023/03/19 05:11:43;;;;;;;20.10;10.73;;;;;8.20;100641.00;;;;9729484;30;20233;-80
2023/03/19 05:16:51;;;;;;;13.80;9.93;;;;;8.20;100637.00;;;;9688732;30;20688;-81
2023/03/19 05:21:56;;;;;;;25.73;12.30;;;;;8.20;100629.00;;;;9693626;30;20243;-81
2023/03/19 05:27:00;;;;;;;22.53;14.37;;;;;8.20;100635.00;;;;9707524;30;20241;-81
2023/03/19 05:32:17;;;;;;;20.30;13.00;;;;;8.30;100640.00;;;;9718477;30;20232;-81
2023/03/19 05:37:21;;;;;;;22.97;12.97;;;;;8.40;100631.00;;;;9713186;30;20723;-80
2023/03/19 05:42:30;;;;;;;21.20;12.13;;;;;8.40;100641.00;;;;9700230;30;20227;-81
2023/03/19 05:47:33;;;;;;;20.87;13.50;;;;;8.40;100637.00;;;;9708410;30;20207;-81
2023/03/19 05:52:36;;;;;;;23.57;13.43;;;;;8.40;100641.00;;;;9706744;30;20649;-82
2023/03/19 05:57:39;;;;;;;22.53;12.77;;;;;8.40;100644.00;;;;9709609;30;20360;-81
2023/03/19 06:02:43;;;;;;;19.60;12.60;;;;;8.40;100646.00;;;;9705145;30;20246;-81
2023/03/19 06:08:08;;;;;;;19.10;11.63;;;;;8.40;100655.00;;;;9722794;30;20289;-81
2023/03/19 06:13:42;;;;;;;23.57;11.87;;;;;8.40;100660.00;;;;9687615;30;20222;-81
2023/03/19 06:18:49;;;;;;;18.17;11.17;;;;;8.40;100668.00;;;;9684547;30;20986;-81
2023/03/19 06:23:52;;;;;;;17.20;10.33;;;;;8.40;100664.00;;;;9691624;30;20218;-80
2023/03/19 06:29:03;;;;;;;17.23;10.23;;;;;8.60;100683.00;;;;9677790;30;20314;-81
2023/03/19 06:34:05;;;;;;;18.30;10.57;;;;;8.70;100687.00;;;;9706486;30;20723;-80
2023/03/19 06:39:15;;;;;;;15.03;8.50;;;;;8.70;100699.00;;;;9690824;30;20211;-80
2023/03/19 06:44:18;;;;;;;17.57;9.00;;;;;8.60;100701.00;;;;9715886;30;20266;-81
2023/03/19 06:49:20;;;;;;;15.27;7.27;;;;;8.60;100698.00;;;;9719041;30;20230;-80
2023/03/19 06:54:22;;;;;;;13.53;6.60;;;;;8.50;100703.00;;;;9706776;30;20512;-80
2023/03/19 06:59:25;;;;;;;14.33;7.80;;;;;8.50;100716.00;;;;9696229;30;20227;-80
2023/03/19 07:04:28;;;;;;;15.30;7.73;;;;;8.50;100728.00;;;;9710978;30;20242;-81
2023/03/19 07:09:31;;;;;;;12.43;7.37;;;;;8.60;100732.00;;;;9695400;30;20212;-81
2023/03/19 07:14:33;;;;;;;12.27;7.03;;;;;9.00;100739.00;;;;9725365;30;20235;-81
2023/03/19 07:19:35;;;;;;;20.97;7.43;;;;;9.60;100748.00;;;;9653401;30;20220;-80
2023/03/19 07:24:37;;;;;;;12.93;7.00;;;;;10.30;100744.00;;;;9688557;30;20225;-80
2023/03/19 07:29:38;;;;;;;11.80;6.20;;;;;10.80;100749.00;;;;9686601;30;20215;-80
2023/03/19 07:34:41;;;;;;;11.47;5.23;;;;;11.20;100737.00;;;;9715480;30;20222;-80
2023/03/19 07:39:43;;;;;;;8.47;4.90;;;;;11.50;100747.00;;;;9720056;30;20227;-80
2023/03/19 07:44:44;;;;;;;8.00;3.67;;;;;11.80;100745.00;;;;9706620;30;20211;-80
2023/03/19 07:49:46;;;;;;;14.40;4.57;;;;;12.10;100749.00;;;;9699047;30;20203;-80
2023/03/19 07:54:49;;;;;;;15.07;4.83;;;;;12.40;100756.00;;;;9708152;30;20223;-81
2023/03/19 07:59:51;;;;;;;15.20;4.73;;;;;12.60;100753.00;;;;9694691;30;20238;-80
2023/03/19 08:04:54;;;;;;;11.47;4.50;;;;;12.70;100748.00;;;;9715448;30;20218;-80
2023/03/19 08:09:57;;;;;;;10.33;3.47;;;;;12.90;100755.00;;;;9701221;30;20218;-80
2023/03/19 08:15:00;;;;;;;14.93;4.97;;;;;13.20;100752.00;;;;9723782;30;20214;-81
2023/03/19 08:20:04;;;;;;;14.25;5.03;;;;;13.60;100753.00;;;;9711987;30;20231;-81
2023/03/19 08:25:07;;;;;;;11.05;4.70;;;;;13.90;100759.00;;;;9686898;30;20215;-80
2023/03/19 08:30:10;;;;;;;12.52;5.10;;;;;14.30;100754.00;;;;9673721;30;20316;-81
2023/03/19 08:35:12;;;;;;;12.98;4.40;;;;;14.50;100759.00;;;;9684448;30;20629;-82
2023/03/19 08:40:15;;;;;;;14.05;4.38;;;;;14.90;100763.00;;;;9698880;30;20234;-81
2023/03/19 08:45:18;;;;;;;11.90;3.17;;;;;15.20;100772.00;;;;9671601;30;20214;-81
2023/03/19 08:50:22;;;;;;;12.73;3.40;;;;;15.50;100783.00;;;;9681186;30;20253;-82
2023/03/19 08:55:24;;;;;;;9.25;2.92;;;;;15.80;100794.00;;;;9670332;30;20759;-81
2023/03/19 09:00:26;;;;;;;11.80;3.97;;;;;15.50;100798.00;;;;9689081;30;20738;-82
2023/03/19 09:05:29;;;;;;;10.73;3.70;;;;;15.60;100809.00;;;;9693539;30;20361;-81
2023/03/19 09:10:31;;;;;;;10.38;3.40;;;;;15.20;100813.00;;;;9693944;30;20209;-80
2023/03/19 09:15:34;;;;;;;10.20;3.40;;;;;14.90;100817.00;;;;9708675;30;20261;-81
2023/03/19 09:20:36;;;;;;;9.45;3.08;;;;;14.80;100847.00;;;;9691533;30;20235;-83
2023/03/19 09:25:39;;;;;;;11.95;3.40;;;;;15.30;100845.00;;;;9704691;30;20217;-83
2023/03/19 09:30:42;;;;;;;10.20;3.80;;;;;15.40;100844.00;;;;9707639;30;20249;-82
2023/03/19 09:35:51;;;;;;;11.90;3.50;;;;;15.50;100858.00;;;;9689932;30;20234;-82
2023/03/19 09:41:15;;;;;;;14.70;3.65;;;;;15.30;100864.00;;;;9691317;30;20247;-82
2023/03/19 09:46:21;;;;;;;11.68;2.75;;;;;15.00;100869.00;;;;9692126;30;20590;-82
2023/03/19 09:51:34;;;;;;;11.48;2.55;;;;;15.20;100867.00;;;;9725140;30;20297;-83
2023/03/19 09:56:36;;;;;;;9.85;3.47;;;;;15.50;100877.00;;;;9678168;30;20210;-82
2023/03/19 10:01:44;;;;;;;12.35;2.97;;;;;15.20;100885.00;;;;9725570;30;20237;-82
2023/03/19 10:06:46;;;;;;;7.68;2.92;;;;;15.00;100890.00;;;;9721206;30;20218;-83
2023/03/19 10:12:03;;;;;;;8.68;3.72;;;;;14.70;100892.00;;;;9693693;30;20239;-83
2023/03/19 10:17:13;;;;;;;10.95;4.05;;;;;15.10;100907.00;;;;9725429;30;20203;-83
2023/03/19 10:22:20;;;;;;;9.10;3.58;;;;;15.30;100908.00;;;;9714083;30;20541;-83
2023/03/19 10:27:27;;;;;;;10.77;3.47;;;;;15.50;100908.00;;;;9684451;30;20219;-83
2023/03/19 10:32:45;;;;;;;8.40;3.60;;;;;15.70;100904.00;;;;9719846;30;20211;-83
2023/03/19 10:37:49;;;;;;;10.40;5.00;;;;;16.00;100896.00;;;;9679672;30;20898;-83
2023/03/19 10:42:59;;;;;;;13.40;4.00;;;;;17.50;100885.00;;;;9697433;30;20234;-83
2023/03/19 10:48:04;;;;;;;9.98;3.40;;;;;18.00;100890.00;;;;9688223;30;20241;-85
2023/03/19 10:53:28;;;;;;;10.68;4.10;;;;;17.80;100894.00;;;;9669108;30;20219;-84
2023/03/19 10:58:32;;;;;;;8.30;3.83;;;;;17.60;100907.00;;;;9695586;30;20344;-83
2023/03/19 11:03:48;;;;;;;7.95;4.25;;;;;17.50;100904.00;;;;9688643;30;20238;-82
2023/03/19 11:09:11;;;;;;;13.70;3.65;;;;;18.40;100899.00;;;;9713169;30;20305;-84
2023/03/19 11:14:25;;;;;;;9.15;3.67;;;;;19.30;100902.00;;;;9695243;30;20226;-84
2023/03/19 11:19:30;;;;;;;8.10;3.55;;;;;18.80;100907.00;;;;9695535;30;20227;-84
2023/03/19 11:24:36;;;;;;;7.50;3.92;;;;;18.20;100903.00;;;;9693628;30;20246;-84
2023/03/19 11:29:43;;;;;;;9.70;4.47;;;;;18.60;100912.00;;;;9689950;30;21684;-84
2023/03/19 11:35:11;;;;;;;11.18;4.63;;;;;18.30;100910.00;;;;9699939;30;20210;-84
2023/03/19 11:40:43;;;;;;;11.82;4.57;;;;;17.50;100923.00;;;;9721630;30;20237;-84
2023/03/19 11:46:23;;;;;;;9.85;5.80;;;;;16.60;100936.00;;;;9698244;30;20222;-83
2023/03/19 11:51:35;;;;;;;15.50;7.18;;;;;15.40;100938.00;;;;9708660;30;20214;-83
2023/03/19 11:56:45;;;;;;;14.45;8.35;;;;;15.20;100942.00;;;;9680016;30;20227;-84
2023/03/19 12:02:25;;;;;;;15.98;9.20;;;;;15.10;100951.00;;;;9673677;30;20274;-83
2023/03/19 12:07:41;;;;;;;17.50;8.93;;;;;15.20;100944.00;;;;9683987;30;20238;-83
2023/03/19 12:12:56;;;;;;;14.82;9.35;;;;;15.20;100949.00;;;;9709475;30;20213;-83
2023/03/19 12:18:28;;;;;;;16.10;11.75;;;;;14.90;100942.00;;;;9706207;30;21937;-81
2023/03/19 12:23:37;;;;;;;17.20;9.32;;;;;15.70;100949.00;;;;9693301;30;20245;-83
2023/03/19 12:28:56;;;;;;;18.92;9.30;;;;;16.10;100948.00;;;;9710244;30;20218;-84
2023/03/19 12:34:23;;;;;;;12.05;9.18;;;;;15.90;100949.00;;;;9692565;30;20288;-83
2023/03/19 12:39:33;;;;;;;16.08;9.65;;;;;16.50;100949.00;;;;9700193;30;20238;-83
2023/03/19 12:44:37;;;;;;;16.10;10.15;;;;;16.70;100940.00;;;;9708471;30;20253;-84
2023/03/19 12:49:47;;;;;;;15.20;9.15;;;;;18.20;100943.00;;;;9670129;30;20210;-83
2023/03/19 12:55:04;;;;;;;12.93;7.88;;;;;17.80;100949.00;;;;9693087;30;20237;-83
2023/03/19 13:00:19;;;;;;;13.57;7.90;;;;;17.60;100947.00;;;;9705623;30;20214;-83
2023/03/19 13:05:28;;;;;;;13.30;7.28;;;;;17.80;100941.00;;;;9660019;30;20225;-84
2023/03/19 13:10:33;;;;;;;11.75;7.05;;;;;17.80;100953.00;;;;9671980;30;20238;-83
2023/03/19 13:15:44;;;;;;;8.77;4.93;;;;;17.30;100958.00;;;;9706720;30;20231;-83
2023/03/19 13:21:28;;;;;;;7.10;4.72;;;;;17.30;100956.00;;;;9694540;30;20292;-83
2023/03/19 13:26:31;;;;;;;9.23;6.00;;;;;18.30;100950.00;;;;9696409;30;20214;-83
2023/03/19 13:31:35;;;;;;;7.72;5.18;;;;;17.70;100949.00;;;;9670116;30;20251;-83
2023/03/19 13:36:38;;;;;;;9.00;5.00;;;;;17.40;100957.00;;;;9741474;30;20314;-83
2023/03/19 13:41:41;;;;;;;6.72;5.32;;;;;18.50;100954.00;;;;9693682;30;20316;-83
2023/03/19 13:46:43;;;;;;;9.93;6.22;;;;;18.40;100952.00;;;;9696610;30;20215;-83
2023/03/19 13:51:49;;;;;;;7.55;5.78;;;;;17.40;100961.00;;;;9672177;30;20263;-83
2023/03/19 13:56:59;;;;;;;9.45;6.07;;;;;15.90;100956.00;;;;9717742;30;20650;-83
2023/03/19 14:02:21;;;;;;;9.32;6.47;;;;;15.00;100975.00;;;;9681736;30;20242;-83
2023/03/19 14:07:27;;;;;;;9.10;5.93;;;;;14.30;100979.00;;;;9691052;30;20222;-83
2023/03/19 14:12:32;;;;;;;11.48;5.63;;;;;14.10;100985.00;;;;9689538;30;20222;-82
2023/03/19 14:17:47;;;;;;;6.27;4.80;;;;;14.50;100981.00;;;;9675477;30;20801;-84
2023/03/19 14:23:01;;;;;;;7.45;5.07;;;;;15.00;100981.00;;;;9728160;30;20240;-83
2023/03/19 14:28:09;;;;;;;5.20;4.35;;;;;16.10;100999.00;;;;9695592;30;20234;-83
2023/03/19 14:33:21;;;;;;;5.90;4.82;;;;;15.20;101016.00;;;;9704796;30;20221;-82
2023/03/19 14:39:05;;;;;;;8.88;6.47;;;;;14.70;101020.00;;;;9717435;30;20218;-82
2023/03/19 14:44:44;;;;;;;8.13;6.77;;;;;14.40;101014.00;;;;9690910;30;20629;-83
2023/03/19 14:50:16;;;;;;;9.73;6.33;;;;;14.30;101019.00;;;;9693530;30;20215;-83
2023/03/19 14:55:18;;;;;;;10.53;6.53;;;;;14.40;101016.00;;;;9674558;30;20322;-83
2023/03/19 15:00:21;;;;;;;7.00;5.63;;;;;14.20;101033.00;;;;9685388;30;20216;-83
2023/03/19 15:05:35;;;;;;;8.23;5.17;;;;;13.50;101021.00;;;;9686966;30;20652;-82
2023/03/19 15:10:59;;;;;;;5.17;3.67;;;;;13.90;101026.00;;;;9686515;30;20273;-82
2023/03/19 15:16:23;;;;;;;3.40;2.87;;;;;13.50;101030.00;;;;9725498;30;20203;-83
2023/03/19 15:21:25;;;;;;;6.13;2.50;;;;;13.40;101037.00;;;;9678092;30;20226;-82
2023/03/19 15:26:36;;;;;;;4.10;2.10;;;;;14.00;101032.00;;;;9697794;30;20245;-81
2023/03/19 15:31:48;;;;;;;5.90;2.57;;;;;16.50;101023.00;;;;9671618;30;20301;-81
2023/03/19 15:37:13;;;;;;;3.90;2.40;;;;;15.60;101045.00;;;;9685429;30;20214;-81
2023/03/19 15:42:15;;;;;;;3.47;2.47;;;;;14.00;101067.00;;;;9705357;30;20211;-82
2023/03/19 15:47:27;;;;;;;5.43;3.67;;;;;13.00;101076.00;;;;9682780;30;20206;-81
2023/03/19 15:52:36;;;;;;;8.57;3.53;;;;;12.90;101086.00;;;;9692983;30;20204;-81
2023/03/19 15:57:41;;;;;;;6.07;3.80;;;;;12.60;101091.00;;;;9713850;30;20202;-82
2023/03/19 16:02:48;;;;;;;8.07;3.87;;;;;11.70;101102.00;;;;9734293;30;20228;-82
2023/03/19 16:07:59;;;;;;;4.97;3.93;;;;;11.70;101102.00;;;;9691398;30;20203;-82
2023/03/19 16:13:04;;;;;;;6.07;4.50;;;;;11.80;101124.00;;;;9713908;30;20194;-82
2023/03/19 16:18:15;;;;;;;6.80;3.53;;;;;11.90;101125.00;;;;9699351;30;20606;-81
2023/03/19 16:23:17;;;;;;;7.07;4.57;;;;;11.90;101124.00;;;;9693326;30;21335;-83
2023/03/19 16:28:24;;;;;;;6.50;4.20;;;;;11.90;101133.00;;;;9699367;30;20283;-82
2023/03/19 16:33:26;;;;;;;7.70;5.00;;;;;12.10;101148.00;;;;9737762;30;20199;-83
2023/03/19 16:39:12;;;;;;;7.17;5.33;;;;;11.70;101157.00;;;;9725284;30;20275;-83
2023/03/19 16:44:18;;;;;;;13.47;9.90;;;;;11.10;101164.00;;;;9733108;30;20331;-82
2023/03/19 16:49:20;;;;;;;14.33;9.83;;;;;10.90;101186.00;;;;9710542;30;20204;-82
2023/03/19 16:54:22;;;;;;;14.43;9.40;;;;;10.60;101190.00;;;;9673580;30;20196;-83
2023/03/19 16:59:29;;;;;;;13.87;10.53;;;;;10.50;101211.00;;;;9688635;30;20273;-83
2023/03/19 17:04:31;;;;;;;18.63;11.57;;;;;10.20;101215.00;;;;9698412;30;20222;-82
2023/03/19 17:09:34;;;;;;;14.33;9.47;;;;;10.20;101232.00;;;;9696136;30;20251;-82
2023/03/19 17:14:36;;;;;;;6.87;4.87;;;;;10.10;101217.00;;;;9694888;30;20211;-82
2023/03/19 17:19:39;;;;;;;5.17;3.67;;;;;9.90;101233.00;;;;9699067;30;20681;-83
2023/03/19 17:24:41;;;;;;;6.43;4.30;;;;;9.70;101234.00;;;;9698682;30;20224;-82
2023/03/19 17:29:43;;;;;;;7.60;5.00;;;;;9.70;101252.00;;;;9706305;30;20219;-81
2023/03/19 17:34:46;;;;;;;11.23;4.77;;;;;9.70;101273.00;;;;9701289;30;20219;-82
2023/03/19 17:39:49;;;;;;;8.73;4.73;;;;;9.60;101268.00;;;;9711143;30;20210;-83
2023/03/19 17:44:51;;;;;;;8.03;4.30;;;;;9.50;101288.00;;;;9723201;30;20318;-83
2023/03/19 17:49:55;;;;;;;6.97;4.27;;;;;9.50;101306.00;;;;9720532;30;20211;-84
2023/03/19 17:54:57;;;;;;;7.17;4.30;;;;;9.40;101300.00;;;;9705012;30;20207;-82
2023/03/19 17:59:59;;;;;;;6.00;3.67;;;;;9.40;101301.00;;;;9683973;30;20214;-83
2023/03/19 18:05:01;;;;;;;6.20;3.90;;;;;9.30;101307.00;;;;9728409;30;20218;-82
2023/03/19 18:10:03;;;;;;;8.47;4.50;;;;;9.30;101323.00;;;;9706469;30;20766;-82
2023/03/19 18:15:06;;;;;;;12.27;4.87;;;;;9.30;101327.00;;;;9681258;30;20204;-83
2023/03/19 18:20:16;;;;;;;9.57;4.87;;;;;9.20;101325.00;;;;9705431;30;20659;-82
2023/03/19 18:25:21;;;;;;;8.20;4.27;;;;;9.20;101337.00;;;;9681369;30;20222;-83
2023/03/19 18:30:28;;;;;;;9.10;4.73;;;;;9.20;101347.00;;;;9728051;30;20225;-83
2023/03/19 18:35:34;;;;;;;7.57;5.10;;;;;9.20;101344.00;;;;9712016;30;20207;-81
2023/03/19 18:40:37;;;;;;;9.23;4.63;;;;;9.10;101360.00;;;;9706566;30;20221;-82
2023/03/19 18:45:40;;;;;;;8.73;5.57;;;;;9.10;101362.00;;;;9636802;30;20603;-83
2023/03/19 18:50:42;;;;;;;9.60;4.87;;;;;9.10;101352.00;;;;9704292;30;20317;-82
2023/03/19 18:55:45;;;;;;;8.77;5.57;;;;;9.00;101356.00;;;;9720133;30;20305;-82
2023/03/19 19:00:49;;;;;;;8.37;4.00;;;;;9.00;101371.00;;;;9681175;30;20215;-82
2023/03/19 19:05:52;;;;;;;7.57;4.33;;;;;8.90;101366.00;;;;9701841;30;20214;-83
2023/03/19 19:11:02;;;;;;;9.47;4.60;;;;;8.90;101367.00;;;;9688126;30;20317;-82
2023/03/19 19:16:04;;;;;;;6.63;4.60;;;;;8.90;101373.00;;;;9707131;30;20238;-83
2023/03/19 19:21:07;;;;;;;8.37;4.60;;;;;8.80;101383.00;;;;9684843;30;20218;-83
2023/03/19 19:26:20;;;;;;;7.17;4.00;;;;;8.80;101397.00;;;;9680216;30;20222;-82
2023/03/19 19:31:25;;;;;;;9.77;5.00;;;;;8.80;101402.00;;;;9672552;30;20234;-82
2023/03/19 19:36:27;;;;;;;8.67;5.37;;;;;8.80;101397.00;;;;9657799;30;20265;-82
2023/03/19 19:41:32;;;;;;;10.87;5.53;;;;;8.80;101414.00;;;;9689837;30;20210;-82
2023/03/19 19:46:34;;;;;;;12.83;5.50;;;;;8.80;101422.00;;;;9658437;30;20245;-81
2023/03/19 19:51:37;;;;;;;10.17;5.30;;;;;8.80;101417.00;;;;9695681;30;20214;-82
2023/03/19 19:56:40;;;;;;;8.90;5.57;;;;;8.80;101420.00;;;;9698151;30;20229;-80
2023/03/19 20:01:42;;;;;;;9.63;5.60;;;;;8.80;101413.00;;;;9695361;30;20231;-82
2023/03/19 20:06:44;;;;;;;8.73;4.97;;;;;8.80;101414.00;;;;9705406;30;21732;-82
2023/03/19 20:11:47;;;;;;;9.63;5.43;;;;;8.70;101415.00;;;;9718775;30;20203;-82
2023/03/19 20:16:49;;;;;;;8.70;5.77;;;;;8.60;101423.00;;;;9712173;30;20220;-82
2023/03/19 20:21:52;;;;;;;11.27;5.97;;;;;8.50;101424.00;;;;9704844;30;20203;-82
2023/03/19 20:26:54;;;;;;;10.43;6.20;;;;;8.40;101431.00;;;;9718910;30;20231;-81
2023/03/19 20:31:56;;;;;;;7.80;6.47;;;;;8.40;101435.00;;;;9688404;30;20235;-81
2023/03/19 20:37:00;;;;;;;9.40;6.00;;;;;8.30;101445.00;;;;9688842;30;20222;-81
2023/03/19 20:42:02;;;;;;;10.93;7.07;;;;;8.10;101445.00;;;;9670793;30;20223;-81
2023/03/19 20:47:14;;;;;;;7.97;5.77;;;;;7.90;101460.00;;;;9683582;30;20338;-80
2023/03/19 20:52:16;;;;;;;14.13;6.73;;;;;7.70;101456.00;;;;9688042;30;21128;-79
2023/03/19 20:57:27;;;;;;;9.20;6.23;;;;;7.50;101464.00;;;;9669608;30;20223;-81
2023/03/19 21:02:29;;;;;;;11.10;6.13;;;;;7.30;101464.00;;;;9715187;30;20282;-81
2023/03/19 21:07:33;;;;;;;9.73;6.37;;;;;7.20;101468.00;;;;9695080;30;20230;-82
2023/03/19 21:12:35;;;;;;;11.43;7.20;;;;;7.00;101462.00;;;;9702068;30;20256;-82
2023/03/19 21:17:37;;;;;;;16.43;8.20;;;;;6.90;101460.00;;;;9724381;30;20203;-81
2023/03/19 21:22:40;;;;;;;10.80;7.30;;;;;6.80;101457.00;;;;9707452;30;20226;-81
2023/03/19 21:27:46;;;;;;;18.70;8.10;;;;;6.70;101455.00;;;;9705284;30;20223;-81
2023/03/19 21:32:48;;;;;;;13.90;7.70;;;;;6.50;101454.00;;;;9684403;30;20234;-81
2023/03/19 21:37:51;;;;;;;14.63;8.70;;;;;6.40;101453.00;;;;9701346;30;20215;-81
2023/03/19 21:43:00;;;;;;;17.50;8.10;;;;;6.30;101456.00;;;;9688241;30;20269;-82
2023/03/19 21:48:08;;;;;;;20.57;9.43;;;;;6.20;101447.00;;;;9683198;30;20217;-81
2023/03/19 21:53:10;;;;;;;18.50;8.93;;;;;6.00;101452.00;;;;9707992;30;20221;-81
2023/03/19 21:58:16;;;;;;;11.43;7.33;;;;;6.00;101443.00;;;;9698987;30;20211;-81
2023/03/19 22:03:20;;;;;;;10.60;7.63;;;;;5.90;101439.00;;;;9669057;30;20223;-82
2023/03/19 22:08:24;;;;;;;13.33;7.53;;;;;5.70;101436.00;;;;9676234;30;20301;-82
2023/03/19 22:13:34;;;;;;;16.60;8.30;;;;;5.60;101444.00;;;;9739356;30;20203;-82
2023/03/19 22:18:36;;;;;;;13.87;7.97;;;;;5.60;101442.00;;;;9679044;30;20263;-82
2023/03/19 22:23:38;;;;;;;15.07;8.23;;;;;5.50;101447.00;;;;9712622;30;20314;-82
2023/03/19 22:28:40;;;;;;;15.73;8.43;;;;;5.50;101439.00;;;;9741121;30;20252;-82
2023/03/19 22:33:42;;;;;;;13.33;7.97;;;;;5.50;101449.00;;;;9713380;30;20212;-81
2023/03/19 22:38:45;;;;;;;14.93;7.60;;;;;5.50;101458.00;;;;9700199;30;20222;-81
2023/03/19 22:43:48;;;;;;;14.93;7.20;;;;;5.40;101458.00;;;;9721581;30;20222;-81
2023/03/19 22:48:51;;;;;;;14.70;7.60;;;;;5.40;101466.00;;;;9714667;30;20742;-81
2023/03/19 22:53:54;;;;;;;13.83;7.07;;;;;5.20;101465.00;;;;9719526;30;20212;-81
2023/03/19 22:58:56;;;;;;;16.47;8.87;;;;;5.10;101483.00;;;;9704499;30;20245;-81
2023/03/19 23:04:20;;;;;;;19.00;8.80;;;;;5.00;101482.00;;;;9674661;30;20252;-82
2023/03/19 23:09:31;;;;;;;14.93;7.07;;;;;4.90;101491.00;;;;9702869;30;20215;-81
2023/03/19 23:14:35;;;;;;;12.03;7.27;;;;;4.90;101489.00;;;;9705122;30;20836;-81
2023/03/19 23:19:37;;;;;;;13.20;7.60;;;;;4.80;101489.00;;;;9705543;30;20213;-81
2023/03/19 23:24:41;;;;;;;14.40;8.73;;;;;4.90;101488.00;;;;9691704;30;20239;-82
2023/03/19 23:29:43;;;;;;;16.43;7.80;;;;;5.00;101486.00;;;;9716073;30;20249;-80
2023/03/19 23:34:45;;;;;;;15.03;8.20;;;;;5.10;101492.00;;;;9713182;30;20290;-81
2023/03/19 23:40:01;;;;;;;11.67;7.97;;;;;5.10;101504.00;;;;9724586;30;20206;-81
2023/03/19 23:45:03;;;;;;;15.87;8.40;;;;;5.00;101508.00;;;;9708861;30;20257;-81
2023/03/19 23:50:11;;;;;;;18.43;8.77;;;;;4.90;101519.00;;;;9692982;30;20199;-81
2023/03/19 23:55:13;;;;;;;17.47;8.50;;;;;4.80;101499.00;;;;9703577;30;20207;-81
